Time;durP1;ratioP1;P1;durP2;ratioP2;P2;SDS_P1;SDS_P2;PMS_P1;PMS_P2;Temp;Humidity;BMP_temperature;BMP_pressure;BME280_temperature;BME280_humidity;BME280_pressure;Samples;Min_cycle;Max_cycle;Signal;HPM_P1;HPM_P2
2023/11/22 00:01:52;;;;;;;3.00;1.87;;;;;;;;;;5026085;28;20092;-71
2023/11/22 00:04:18;;;;;;;2.20;1.93;;;;;;;;;;5006644;28;20030;-70
2023/11/22 00:06:46;;;;;;;2.47;1.97;;;;;;;;;;4990195;28;20037;-72
2023/11/22 00:09:11;;;;;;;3.47;2.60;;;;;;;;;;4990159;28;20033;-70
2023/11/22 00:11:38;;;;;;;4.30;2.30;;;;;;;;;;4991740;28;20085;-69
2023/11/22 00:14:04;;;;;;;2.93;1.73;;;;;;;;;;4992241;28;20118;-70
2023/11/22 00:16:30;;;;;;;2.23;2.07;;;;;;;;;;4995999;28;20049;-70
2023/11/22 00:18:56;;;;;;;2.70;2.37;;;;;;;;;;5010322;28;20093;-70
2023/11/22 00:21:23;;;;;;;2.23;1.60;;;;;;;;;;5010195;28;20253;-70
2023/11/22 00:23:49;;;;;;;3.73;2.10;;;;;;;;;;5010219;28;20053;-71
2023/11/22 00:26:15;;;;;;;2.87;2.10;;;;;;;;;;4993927;28;20058;-70
2023/11/22 00:28:41;;;;;;;4.77;2.80;;;;;;;;;;5011665;28;20026;-69
2023/11/22 00:31:08;;;;;;;4.17;2.40;;;;;;;;;;5001716;28;20105;-71
2023/11/22 00:33:34;;;;;;;3.70;2.43;;;;;;;;;;4990249;28;20026;-70
2023/11/22 00:36:04;;;;;;;5.73;2.70;;;;;;;;;;4990070;28;20125;-70
2023/11/22 00:38:30;;;;;;;3.97;2.40;;;;;;;;;;5027826;28;20120;-70
2023/11/22 00:40:59;;;;;;;4.90;2.63;;;;;;;;;;5011365;28;20128;-70
2023/11/22 00:43:26;;;;;;;3.73;2.73;;;;;;;;;;5027662;28;20092;-70
2023/11/22 00:45:52;;;;;;;5.13;3.87;;;;;;;;;;5011775;28;20017;-70
2023/11/22 00:48:18;;;;;;;3.97;2.80;;;;;;;;;;5028540;28;20060;-72
2023/11/22 00:50:46;;;;;;;4.37;3.47;;;;;;;;;;5011603;28;20033;-70
2023/11/22 00:53:12;;;;;;;4.80;3.13;;;;;;;;;;4995127;28;20539;-70
2023/11/22 00:55:38;;;;;;;6.67;3.43;;;;;;;;;;5011504;28;20072;-69
2023/11/22 00:58:05;;;;;;;4.97;3.00;;;;;;;;;;5015103;28;20053;-69
2023/11/22 01:00:31;;;;;;;5.33;3.27;;;;;;;;;;5017044;28;20044;-70
2023/11/22 01:02:58;;;;;;;4.80;3.70;;;;;;;;;;5018434;28;20068;-70
2023/11/22 01:05:24;;;;;;;6.63;3.33;;;;;;;;;;5033302;28;20025;-71
2023/11/22 01:07:50;;;;;;;7.00;3.47;;;;;;;;;;5015064;28;20029;-70
2023/11/22 01:10:16;;;;;;;4.93;3.33;;;;;;;;;;5014760;28;20099;-70
2023/11/22 01:12:42;;;;;;;7.03;3.53;;;;;;;;;;5014578;28;20107;-69
2023/11/22 01:15:09;;;;;;;5.77;4.20;;;;;;;;;;5011938;28;20041;-70
2023/11/22 01:17:35;;;;;;;5.57;3.80;;;;;;;;;;5013589;28;20113;-69
2023/11/22 01:20:03;;;;;;;6.07;4.20;;;;;;;;;;5011094;28;20060;-70
2023/11/22 01:22:31;;;;;;;6.30;3.40;;;;;;;;;;4996963;28;20029;-68
2023/11/22 01:24:57;;;;;;;8.20;4.03;;;;;;;;;;4996265;28;20046;-69
2023/11/22 01:27:24;;;;;;;6.27;4.67;;;;;;;;;;4993167;28;20034;-69
2023/11/22 01:29:50;;;;;;;6.13;4.13;;;;;;;;;;4993183;28;20049;-70
2023/11/22 01:32:17;;;;;;;5.20;3.87;;;;;;;;;;4992904;28;20065;-70
2023/11/22 01:34:43;;;;;;;5.90;4.33;;;;;;;;;;4994180;28;20049;-71
2023/11/22 01:37:09;;;;;;;7.93;4.80;;;;;;;;;;4993891;28;20049;-69
2023/11/22 01:39:35;;;;;;;8.20;4.83;;;;;;;;;;4992943;28;20030;-69
2023/11/22 01:42:02;;;;;;;7.63;5.53;;;;;;;;;;4992511;28;20041;-71
2023/11/22 01:44:27;;;;;;;10.23;5.57;;;;;;;;;;5008745;28;20042;-68
2023/11/22 01:46:54;;;;;;;12.27;6.30;;;;;;;;;;4992492;28;20026;-69
2023/11/22 01:49:20;;;;;;;8.53;5.57;;;;;;;;;;5001759;28;20042;-71
2023/11/22 01:51:45;;;;;;;12.70;6.23;;;;;;;;;;4993865;28;20402;-70
2023/11/22 01:54:12;;;;;;;7.47;6.10;;;;;;;;;;4992894;28;20071;-68
2023/11/22 01:56:38;;;;;;;12.70;6.90;;;;;;;;;;4993468;28;20398;-71
2023/11/22 01:59:05;;;;;;;10.23;6.23;;;;;;;;;;4994612;28;20065;-70
2023/11/22 02:01:31;;;;;;;12.03;6.70;;;;;;;;;;5003406;28;20026;-69
2023/11/22 02:03:57;;;;;;;15.07;8.13;;;;;;;;;;5001552;28;20517;-69
2023/11/22 02:06:24;;;;;;;12.67;7.23;;;;;;;;;;4993769;28;20463;-70
2023/11/22 02:08:51;;;;;;;11.63;7.47;;;;;;;;;;4991850;28;20049;-70
2023/11/22 02:11:24;;;;;;;13.53;7.70;;;;;;;;;;5005850;28;20105;-73
2023/11/22 02:13:50;;;;;;;15.70;8.13;;;;;;;;;;5011483;28;20505;-71
2023/11/22 02:16:18;;;;;;;15.80;8.37;;;;;;;;;;5011342;28;20030;-69
2023/11/22 02:18:48;;;;;;;13.03;6.90;;;;;;;;;;5010727;28;20183;-70
2023/11/22 02:21:16;;;;;;;12.37;7.67;;;;;;;;;;5011181;28;20026;-70
2023/11/22 02:23:42;;;;;;;9.70;6.50;;;;;;;;;;5010835;28;20433;-70
2023/11/22 02:26:08;;;;;;;11.17;6.50;;;;;;;;;;5011077;28;20034;-69
2023/11/22 02:28:34;;;;;;;11.97;6.77;;;;;;;;;;5011876;28;20033;-71
2023/11/22 02:31:00;;;;;;;13.57;7.20;;;;;;;;;;5010539;28;20080;-69
2023/11/22 02:33:26;;;;;;;11.80;6.70;;;;;;;;;;5010610;28;20033;-69
2023/11/22 02:35:52;;;;;;;14.53;7.50;;;;;;;;;;5010619;28;20026;-72
2023/11/22 02:38:18;;;;;;;12.63;6.63;;;;;;;;;;5010836;28;20037;-69
2023/11/22 02:40:49;;;;;;;13.83;6.83;;;;;;;;;;5010645;28;20061;-69
2023/11/22 02:43:15;;;;;;;11.85;6.80;;;;;;;;;;5012621;28;20104;-70
2023/11/22 02:45:43;;;;;;;14.13;6.87;;;;;;;;;;5008016;28;20533;-70
2023/11/22 02:48:09;;;;;;;12.33;6.53;;;;;;;;;;4991248;28;20034;-72
2023/11/22 02:50:36;;;;;;;15.93;6.63;;;;;;;;;;4991271;28;20406;-70
2023/11/22 02:53:03;;;;;;;10.90;6.67;;;;;;;;;;4991243;28;20033;-69
2023/11/22 02:55:29;;;;;;;13.13;6.63;;;;;;;;;;4990591;28;20076;-69
2023/11/22 02:57:55;;;;;;;8.57;5.77;;;;;;;;;;5007820;28;20031;-70
2023/11/22 03:00:22;;;;;;;10.93;5.77;;;;;;;;;;4991869;28;20026;-69
2023/11/22 03:02:53;;;;;;;11.23;6.63;;;;;;;;;;4992360;28;20058;-70
2023/11/22 03:05:23;;;;;;;11.80;6.70;;;;;;;;;;4992061;28;20025;-69
2023/11/22 03:07:51;;;;;;;11.43;6.20;;;;;;;;;;4991384;28;20438;-71
2023/11/22 03:10:18;;;;;;;11.03;6.00;;;;;;;;;;4990689;28;20049;-71
2023/11/22 03:12:44;;;;;;;10.57;5.93;;;;;;;;;;4990368;28;20054;-69
2023/11/22 03:15:11;;;;;;;10.30;6.20;;;;;;;;;;4999770;28;20053;-70
2023/11/22 03:17:38;;;;;;;12.90;6.73;;;;;;;;;;5010304;28;20478;-70
2023/11/22 03:20:09;;;;;;;14.50;7.07;;;;;;;;;;5010030;28;20036;-72
2023/11/22 03:22:35;;;;;;;12.43;7.30;;;;;;;;;;5010782;28;20038;-69
2023/11/22 03:25:04;;;;;;;12.47;6.33;;;;;;;;;;5011685;28;20540;-71
2023/11/22 03:27:30;;;;;;;10.67;6.37;;;;;;;;;;5009999;28;20128;-70
2023/11/22 03:29:56;;;;;;;12.00;6.97;;;;;;;;;;4995253;28;20038;-70
2023/11/22 03:32:22;;;;;;;14.00;7.37;;;;;;;;;;4991748;28;20387;-69
2023/11/22 03:34:48;;;;;;;13.60;7.60;;;;;;;;;;4991599;28;20045;-69
2023/11/22 03:37:14;;;;;;;11.30;7.70;;;;;;;;;;4989617;28;20026;-69
2023/11/22 03:39:39;;;;;;;12.10;7.50;;;;;;;;;;4990164;28;20034;-72
2023/11/22 03:42:07;;;;;;;13.13;7.93;;;;;;;;;;4990577;28;20027;-69
2023/11/22 03:44:37;;;;;;;14.93;7.70;;;;;;;;;;4990439;28;20026;-70
2023/11/22 03:47:03;;;;;;;17.23;8.90;;;;;;;;;;4991226;28;20474;-69
2023/11/22 03:49:29;;;;;;;13.73;8.70;;;;;;;;;;4990079;28;20030;-69
2023/11/22 03:51:55;;;;;;;14.83;8.20;;;;;;;;;;4990968;28;20482;-70
2023/11/22 03:54:21;;;;;;;15.93;9.17;;;;;;;;;;4991640;28;20034;-69
2023/11/22 03:56:47;;;;;;;18.23;9.07;;;;;;;;;;4996206;28;20573;-70
2023/11/22 03:59:13;;;;;;;17.83;9.10;;;;;;;;;;5010119;28;20069;-69
2023/11/22 04:01:39;;;;;;;20.73;9.30;;;;;;;;;;5011130;28;20080;-70
2023/11/22 04:04:05;;;;;;;15.57;8.30;;;;;;;;;;5010089;28;20478;-70
2023/11/22 04:06:33;;;;;;;15.80;8.20;;;;;;;;;;5010117;28;20028;-70
2023/11/22 04:08:59;;;;;;;16.50;9.33;;;;;;;;;;5010213;28;20052;-69
2023/11/22 04:11:25;;;;;;;17.10;9.80;;;;;;;;;;5010322;28;20029;-70
2023/11/22 04:13:51;;;;;;;18.10;8.77;;;;;;;;;;5010490;28;20136;-69
2023/11/22 04:16:17;;;;;;;25.37;9.97;;;;;;;;;;5010028;28;20026;-71
2023/11/22 04:18:45;;;;;;;16.40;9.10;;;;;;;;;;5011682;28;20033;-71
2023/11/22 04:21:11;;;;;;;17.40;8.77;;;;;;;;;;5010883;28;20048;-72
2023/11/22 04:23:37;;;;;;;18.17;8.57;;;;;;;;;;5010231;28;20037;-69
2023/11/22 04:26:03;;;;;;;15.97;8.53;;;;;;;;;;5000925;28;20383;-71
2023/11/22 04:28:30;;;;;;;18.30;9.77;;;;;;;;;;4992116;28;20030;-70
2023/11/22 04:30:57;;;;;;;16.00;8.53;;;;;;;;;;4992334;28;20022;-69
2023/11/22 04:33:24;;;;;;;17.43;8.77;;;;;;;;;;4978019;28;20509;-70
2023/11/22 04:35:51;;;;;;;16.33;8.77;;;;;;;;;;4994570;28;20089;-70
2023/11/22 04:38:19;;;;;;;20.03;9.53;;;;;;;;;;5010948;28;20034;-70
2023/11/22 04:40:45;;;;;;;19.43;9.83;;;;;;;;;;5010869;28;20025;-70
2023/11/22 04:43:11;;;;;;;14.07;8.30;;;;;;;;;;5016023;28;20033;-72
2023/11/22 04:45:37;;;;;;;20.50;10.20;;;;;;;;;;5015882;28;20382;-70
2023/11/22 04:48:06;;;;;;;17.73;10.40;;;;;;;;;;5014614;28;20026;-70
2023/11/22 04:50:33;;;;;;;17.97;9.10;;;;;;;;;;5014162;28;20030;-71
2023/11/22 04:53:01;;;;;;;14.90;8.93;;;;;;;;;;5015334;28;20037;-72
2023/11/22 04:55:30;;;;;;;16.07;8.77;;;;;;;;;;4994685;28;20038;-69
2023/11/22 04:57:56;;;;;;;16.83;9.50;;;;;;;;;;4993817;28;20031;-70
2023/11/22 05:00:23;;;;;;;20.63;9.67;;;;;;;;;;4993139;28;20415;-73
2023/11/22 05:02:49;;;;;;;23.77;10.13;;;;;;;;;;4994536;28;20061;-70
2023/11/22 05:05:15;;;;;;;23.13;10.00;;;;;;;;;;4993398;28;20052;-71
2023/11/22 05:07:41;;;;;;;19.53;9.93;;;;;;;;;;4993479;28;20057;-68
2023/11/22 05:10:10;;;;;;;19.40;10.10;;;;;;;;;;4993004;28;20380;-70
2023/11/22 05:12:36;;;;;;;21.90;9.87;;;;;;;;;;4992620;28;20058;-69
2023/11/22 05:15:03;;;;;;;20.03;9.93;;;;;;;;;;4993692;28;20387;-71
2023/11/22 05:17:30;;;;;;;17.77;10.33;;;;;;;;;;4992963;28;20042;-72
2023/11/22 05:19:57;;;;;;;17.77;10.03;;;;;;;;;;4993686;28;20390;-70
2023/11/22 05:22:23;;;;;;;17.37;9.73;;;;;;;;;;5002317;28;20148;-69
2023/11/22 05:24:50;;;;;;;18.03;11.03;;;;;;;;;;5015288;28;20045;-69
2023/11/22 05:27:16;;;;;;;23.77;11.17;;;;;;;;;;5003252;28;20091;-66
2023/11/22 05:29:44;;;;;;;19.20;10.87;;;;;;;;;;4996951;28;20061;-69
2023/11/22 05:32:11;;;;;;;20.53;11.00;;;;;;;;;;4996747;28;20483;-70
2023/11/22 05:34:40;;;;;;;19.17;10.13;;;;;;;;;;5004406;28;20038;-70
2023/11/22 05:37:06;;;;;;;23.77;11.40;;;;;;;;;;5005482;28;20034;-68
2023/11/22 05:39:32;;;;;;;25.30;12.73;;;;;;;;;;5008357;28;20469;-67
2023/11/22 05:41:57;;;;;;;20.57;11.03;;;;;;;;;;5018617;28;20037;-68
2023/11/22 05:44:25;;;;;;;20.33;11.00;;;;;;;;;;5028691;28;20038;-71
2023/11/22 05:46:52;;;;;;;23.53;11.67;;;;;;;;;;5011640;28;20470;-70
2023/11/22 05:49:17;;;;;;;21.07;10.57;;;;;;;;;;4995857;28;20029;-68
2023/11/22 05:51:43;;;;;;;24.63;12.00;;;;;;;;;;5019707;28;20029;-68
2023/11/22 05:54:12;;;;;;;34.37;13.07;;;;;;;;;;5014410;28;20470;-70
2023/11/22 05:56:38;;;;;;;27.13;12.43;;;;;;;;;;5010317;28;20046;-71
2023/11/22 05:59:06;;;;;;;19.90;11.37;;;;;;;;;;5007311;28;20034;-71
2023/11/22 06:01:33;;;;;;;20.37;10.93;;;;;;;;;;5018567;28;20509;-71
2023/11/22 06:04:01;;;;;;;22.73;10.17;;;;;;;;;;4994648;28;20272;-69
2023/11/22 06:06:27;;;;;;;24.77;11.60;;;;;;;;;;5002604;28;20060;-69
2023/11/22 06:08:53;;;;;;;23.40;12.40;;;;;;;;;;5012744;28;20129;-68
2023/11/22 06:11:21;;;;;;;22.87;11.20;;;;;;;;;;5011068;28;20409;-72
2023/11/22 06:13:47;;;;;;;36.23;13.03;;;;;;;;;;5026227;28;20050;-70
2023/11/22 06:16:14;;;;;;;25.90;11.37;;;;;;;;;;5003584;28;20454;-70
2023/11/22 06:18:40;;;;;;;20.77;11.67;;;;;;;;;;4991259;28;20034;-69
2023/11/22 06:21:07;;;;;;;27.43;12.30;;;;;;;;;;5016779;28;20095;-69
2023/11/22 06:23:33;;;;;;;25.50;12.37;;;;;;;;;;5048682;28;20039;-68
2023/11/22 06:25:59;;;;;;;25.33;12.20;;;;;;;;;;5032140;28;20033;-69
2023/11/22 06:28:25;;;;;;;27.03;12.37;;;;;;;;;;5027408;28;20034;-68
2023/11/22 06:30:51;;;;;;;26.23;12.20;;;;;;;;;;5012252;28;20025;-71
2023/11/22 06:33:19;;;;;;;22.80;12.13;;;;;;;;;;5005261;28;20121;-68
2023/11/22 06:35:45;;;;;;;22.07;11.20;;;;;;;;;;4995494;28;20561;-69
2023/11/22 06:38:17;;;;;;;23.97;11.70;;;;;;;;;;5018683;28;20124;-70
2023/11/22 06:40:43;;;;;;;28.67;12.00;;;;;;;;;;5025453;28;20403;-70
2023/11/22 06:43:10;;;;;;;22.00;11.73;;;;;;;;;;5016987;28;20033;-70
2023/11/22 06:45:35;;;;;;;22.83;10.80;;;;;;;;;;5011058;28;20033;-68
2023/11/22 06:48:02;;;;;;;28.07;12.43;;;;;;;;;;5016478;28;20033;-70
2023/11/22 06:50:28;;;;;;;30.27;13.43;;;;;;;;;;4998758;28;21317;-70
2023/11/22 06:52:54;;;;;;;25.37;12.20;;;;;;;;;;4997509;28;20037;-69
2023/11/22 06:55:21;;;;;;;25.33;11.77;;;;;;;;;;5011212;28;20320;-70
2023/11/22 06:57:50;;;;;;;26.20;11.40;;;;;;;;;;4990590;28;20099;-71
2023/11/22 07:00:16;;;;;;;28.23;12.23;;;;;;;;;;5037247;28;20038;-69
2023/11/22 07:02:45;;;;;;;20.00;11.17;;;;;;;;;;5006152;28;20394;-68
2023/11/22 07:05:12;;;;;;;25.87;12.23;;;;;;;;;;5015347;28;20040;-70
2023/11/22 07:07:41;;;;;;;24.20;11.30;;;;;;;;;;5029900;28;20490;-69
2023/11/22 07:10:07;;;;;;;27.87;14.97;;;;;;;;;;5015078;28;20112;-70
2023/11/22 07:12:36;;;;;;;23.90;13.17;;;;;;;;;;5017213;28;20064;-70
2023/11/22 07:15:19;;;;;;;21.17;10.87;;;;;;;;;;5015969;28;20038;-71
2023/11/22 07:17:45;;;;;;;21.07;11.00;;;;;;;;;;5011102;28;20026;-68
2023/11/22 07:20:16;;;;;;;25.53;12.17;;;;;;;;;;5021880;28;20127;-71
2023/11/22 07:22:43;;;;;;;23.35;11.65;;;;;;;;;;5009403;28;20316;-69
2023/11/22 07:25:17;;;;;;;21.57;11.70;;;;;;;;;;5021859;28;20037;-70
2023/11/22 07:27:45;;;;;;;25.00;12.47;;;;;;;;;;5007956;28;20358;-71
2023/11/22 07:30:13;;;;;;;25.93;13.17;;;;;;;;;;5007317;28;20041;-72
2023/11/22 07:32:39;;;;;;;25.90;12.37;;;;;;;;;;5012688;28;20042;-72
2023/11/22 07:35:08;;;;;;;20.77;11.00;;;;;;;;;;5028142;28;20445;-71
2023/11/22 07:37:35;;;;;;;26.10;12.73;;;;;;;;;;4998280;28;20580;-69
2023/11/22 07:40:05;;;;;;;28.43;12.87;;;;;;;;;;5006134;28;20044;-70
2023/11/22 07:42:30;;;;;;;21.70;12.37;;;;;;;;;;5020376;28;20465;-70
2023/11/22 07:44:56;;;;;;;27.83;11.80;;;;;;;;;;5000945;28;20033;-70
2023/11/22 07:47:24;;;;;;;22.47;11.57;;;;;;;;;;5007754;28;20026;-73
2023/11/22 07:49:52;;;;;;;21.50;12.40;;;;;;;;;;4983552;28;20034;-69
2023/11/22 07:52:22;;;;;;;23.37;11.43;;;;;;;;;;5000748;28;20026;-68
2023/11/22 07:54:48;;;;;;;26.90;12.37;;;;;;;;;;5016290;28;20489;-71
2023/11/22 07:57:14;;;;;;;27.17;12.40;;;;;;;;;;4994800;28;20586;-67
2023/11/22 07:59:39;;;;;;;25.80;12.30;;;;;;;;;;5012247;28;20037;-69
2023/11/22 08:02:11;;;;;;;26.83;12.57;;;;;;;;;;4999593;28;20473;-69
2023/11/22 08:04:37;;;;;;;27.33;12.73;;;;;;;;;;4998207;28;20034;-71
2023/11/22 08:07:04;;;;;;;29.87;13.83;;;;;;;;;;4987625;28;21066;-72
2023/11/22 08:09:34;;;;;;;31.13;13.57;;;;;;;;;;4990986;28;20091;-70
2023/11/22 08:12:03;;;;;;;31.70;13.53;;;;;;;;;;5012364;28;20486;-71
2023/11/22 08:14:28;;;;;;;27.57;13.97;;;;;;;;;;4996555;28;20057;-69
2023/11/22 08:16:54;;;;;;;25.20;13.37;;;;;;;;;;4993610;28;20117;-70
2023/11/22 08:19:23;;;;;;;33.07;14.70;;;;;;;;;;5002484;28;20065;-74
2023/11/22 08:21:49;;;;;;;29.17;13.63;;;;;;;;;;5022187;28;20105;-71
2023/11/22 08:24:14;;;;;;;33.13;14.40;;;;;;;;;;4995772;28;20053;-72
2023/11/22 08:26:40;;;;;;;29.10;13.57;;;;;;;;;;4999521;28;20314;-71
2023/11/22 08:29:11;;;;;;;30.40;14.67;;;;;;;;;;5009035;28;20025;-70
2023/11/22 08:31:36;;;;;;;26.97;13.37;;;;;;;;;;5002064;28;20030;-71
2023/11/22 08:34:08;;;;;;;31.00;14.93;;;;;;;;;;5002344;28;20029;-69
2023/11/22 08:36:34;;;;;;;30.65;15.15;;;;;;;;;;5012605;28;20030;-71
2023/11/22 08:39:01;;;;;;;43.60;14.57;;;;;;;;;;4999082;28;20060;-69
2023/11/22 08:41:29;;;;;;;26.93;14.13;;;;;;;;;;5000536;28;20112;-71
2023/11/22 08:43:55;;;;;;;35.67;14.60;;;;;;;;;;4997260;28;20034;-72
2023/11/22 08:46:21;;;;;;;36.43;15.80;;;;;;;;;;5002475;28;20075;-69
2023/11/22 08:48:47;;;;;;;28.53;15.20;;;;;;;;;;5003563;28;20699;-69
2023/11/22 08:51:13;;;;;;;33.43;14.43;;;;;;;;;;5003499;28;20731;-70
2023/11/22 08:53:38;;;;;;;37.10;15.90;;;;;;;;;;5014896;28;20037;-69
2023/11/22 08:56:05;;;;;;;34.43;16.30;;;;;;;;;;5000261;28;20033;-72
2023/11/22 08:58:31;;;;;;;38.60;16.57;;;;;;;;;;5019088;28;20453;-70
2023/11/22 09:01:00;;;;;;;36.43;15.23;;;;;;;;;;5004285;28;20046;-70
2023/11/22 09:03:26;;;;;;;31.60;14.57;;;;;;;;;;5008283;28;20033;-70
2023/11/22 09:05:55;;;;;;;32.60;15.30;;;;;;;;;;5014532;28;20133;-71
2023/11/22 09:08:24;;;;;;;36.07;14.60;;;;;;;;;;5003275;28;20029;-71
2023/11/22 09:10:51;;;;;;;33.87;14.70;;;;;;;;;;5022893;28;20112;-72
2023/11/22 09:13:17;;;;;;;33.37;14.50;;;;;;;;;;5024426;28;20049;-71
2023/11/22 09:15:45;;;;;;;32.07;15.13;;;;;;;;;;4997781;28;20033;-70
2023/11/22 09:18:14;;;;;;;34.50;14.00;;;;;;;;;;5013928;28;20026;-71
2023/11/22 09:20:44;;;;;;;34.83;14.53;;;;;;;;;;4999307;28;20025;-69
2023/11/22 09:23:10;;;;;;;45.37;15.83;;;;;;;;;;5020041;28;20033;-69
2023/11/22 09:25:36;;;;;;;35.57;14.00;;;;;;;;;;5020775;28;20061;-70
2023/11/22 09:28:01;;;;;;;30.53;14.10;;;;;;;;;;5002664;28;20061;-70
2023/11/22 09:30:34;;;;;;;29.20;13.93;;;;;;;;;;5027829;28;20022;-70
2023/11/22 09:33:07;;;;;;;33.70;13.07;;;;;;;;;;5021565;28;20145;-69
2023/11/22 09:35:34;;;;;;;32.97;15.60;;;;;;;;;;5004558;28;20037;-71
2023/11/22 09:38:11;;;;;;;32.13;13.77;;;;;;;;;;5006204;28;20507;-70
2023/11/22 09:40:45;;;;;;;29.37;14.17;;;;;;;;;;5012790;28;20689;-68
2023/11/22 09:43:31;;;;;;;32.77;15.23;;;;;;;;;;5004983;28;20490;-73
2023/11/22 09:45:57;;;;;;;31.23;14.80;;;;;;;;;;4994629;28;20037;-71
2023/11/22 09:48:25;;;;;;;32.37;15.23;;;;;;;;;;5004137;28;20033;-71
2023/11/22 09:51:20;;;;;;;30.37;14.03;;;;;;;;;;5023491;28;20377;-69
2023/11/22 09:54:04;;;;;;;35.17;14.97;;;;;;;;;;4999675;28;20087;-68
2023/11/22 09:56:32;;;;;;;36.67;15.30;;;;;;;;;;4998544;28;20030;-70
2023/11/22 09:59:00;;;;;;;29.37;12.97;;;;;;;;;;5002245;28;20359;-71
2023/11/22 10:01:33;;;;;;;28.60;13.70;;;;;;;;;;5017537;28;20053;-70
2023/11/22 10:03:59;;;;;;;29.03;14.37;;;;;;;;;;5020280;28;20030;-71
2023/11/22 10:06:26;;;;;;;31.47;13.47;;;;;;;;;;4997152;28;20021;-71
2023/11/22 10:08:53;;;;;;;32.37;14.50;;;;;;;;;;5008889;28;20437;-70
2023/11/22 10:11:21;;;;;;;30.67;14.50;;;;;;;;;;5003514;28;20333;-69
2023/11/22 10:13:50;;;;;;;34.00;13.67;;;;;;;;;;5003041;28;20469;-70
2023/11/22 10:16:19;;;;;;;26.20;12.23;;;;;;;;;;5001668;28;20081;-72
2023/11/22 10:18:46;;;;;;;35.73;15.70;;;;;;;;;;5012595;28;20497;-73
2023/11/22 10:21:32;;;;;;;31.30;12.70;;;;;;;;;;4996498;28;20018;-70
2023/11/22 10:24:03;;;;;;;26.60;13.37;;;;;;;;;;5014581;28;20033;-70
2023/11/22 10:26:30;;;;;;;36.70;12.60;;;;;;;;;;4995187;28;20057;-74
2023/11/22 10:28:57;;;;;;;27.70;12.20;;;;;;;;;;5012304;28;20113;-72
2023/11/22 10:31:24;;;;;;;30.40;13.47;;;;;;;;;;4998431;28;20029;-70
2023/11/22 10:33:50;;;;;;;33.13;13.57;;;;;;;;;;5003124;28;20049;-70
2023/11/22 10:36:17;;;;;;;36.53;14.03;;;;;;;;;;5019336;28;20064;-70
2023/11/22 10:38:53;;;;;;;33.50;14.67;;;;;;;;;;4998318;28;20073;-71
2023/11/22 10:41:21;;;;;;;38.60;17.10;;;;;;;;;;5015869;28;20049;-70
2023/11/22 10:43:47;;;;;;;28.50;13.23;;;;;;;;;;4996819;28;20691;-68
2023/11/22 10:46:13;;;;;;;32.67;15.27;;;;;;;;;;5002160;28;20034;-72
2023/11/22 10:48:39;;;;;;;31.30;13.33;;;;;;;;;;5000922;28;20036;-71
2023/11/22 10:51:05;;;;;;;27.83;13.83;;;;;;;;;;4994801;28;20026;-72
2023/11/22 10:53:38;;;;;;;26.37;13.00;;;;;;;;;;5006798;28;20033;-70
2023/11/22 10:56:17;;;;;;;28.57;12.80;;;;;;;;;;4991914;28;20364;-69
2023/11/22 10:58:56;;;;;;;32.43;15.03;;;;;;;;;;4993398;28;20099;-73
2023/11/22 11:01:31;;;;;;;26.93;13.33;;;;;;;;;;4993619;28;20041;-71
2023/11/22 11:04:06;;;;;;;30.83;14.37;;;;;;;;;;4994655;28;20069;-70
2023/11/22 11:06:53;;;;;;;30.70;14.50;;;;;;;;;;4994607;28;21369;-71
2023/11/22 11:09:29;;;;;;;31.43;14.53;;;;;;;;;;5000621;28;20122;-70
2023/11/22 11:11:57;;;;;;;32.10;13.80;;;;;;;;;;4992317;28;20060;-73
2023/11/22 11:14:31;;;;;;;43.33;15.90;;;;;;;;;;5007984;28;20367;-71
2023/11/22 11:16:58;;;;;;;30.67;14.10;;;;;;;;;;5000993;28;20091;-72
2023/11/22 11:19:25;;;;;;;28.97;14.30;;;;;;;;;;5001321;28;20030;-70
2023/11/22 11:21:50;;;;;;;31.17;14.73;;;;;;;;;;5009339;28;20434;-71
2023/11/22 11:24:18;;;;;;;31.73;13.33;;;;;;;;;;4996916;28;20121;-72
2023/11/22 11:26:54;;;;;;;30.13;12.80;;;;;;;;;;5004508;28;20030;-72
2023/11/22 11:29:40;;;;;;;30.30;12.90;;;;;;;;;;4998337;28;20026;-72
2023/11/22 11:32:11;;;;;;;28.87;14.73;;;;;;;;;;5010255;28;20042;-72
2023/11/22 11:35:06;;;;;;;35.20;15.10;;;;;;;;;;4998665;28;20058;-75
2023/11/22 11:37:33;;;;;;;31.63;14.40;;;;;;;;;;4999605;28;20047;-72
2023/11/22 11:39:59;;;;;;;31.83;13.67;;;;;;;;;;5001625;28;20037;-70
2023/11/22 11:42:25;;;;;;;28.30;13.63;;;;;;;;;;4997250;28;20034;-71
2023/11/22 11:45:11;;;;;;;23.47;11.90;;;;;;;;;;5011936;28;20055;-70
2023/11/22 11:47:36;;;;;;;28.17;13.00;;;;;;;;;;4997729;28;20116;-72
2023/11/22 11:50:03;;;;;;;31.33;12.67;;;;;;;;;;4991752;28;20543;-71
2023/11/22 11:52:30;;;;;;;23.60;12.77;;;;;;;;;;5002931;28;20035;-70
2023/11/22 11:54:57;;;;;;;28.07;13.30;;;;;;;;;;4993864;28;20043;-73
2023/11/22 11:57:23;;;;;;;35.70;15.90;;;;;;;;;;4990441;28;20080;-71
2023/11/22 11:59:49;;;;;;;32.43;15.47;;;;;;;;;;4993260;28;20058;-70
2023/11/22 12:02:16;;;;;;;30.23;13.97;;;;;;;;;;4991185;28;20533;-70
2023/11/22 12:04:45;;;;;;;29.80;13.00;;;;;;;;;;4994206;28;20189;-73
2023/11/22 12:07:13;;;;;;;34.20;13.30;;;;;;;;;;4998650;28;20038;-70
2023/11/22 12:09:41;;;;;;;34.53;14.70;;;;;;;;;;4993022;28;20095;-72
2023/11/22 12:12:07;;;;;;;27.90;11.70;;;;;;;;;;5000707;28;20054;-71
2023/11/22 12:14:33;;;;;;;27.70;13.77;;;;;;;;;;5005383;28;20076;-71
2023/11/22 12:17:00;;;;;;;27.23;13.27;;;;;;;;;;5003879;28;20064;-71
2023/11/22 12:19:35;;;;;;;33.40;15.20;;;;;;;;;;5003227;28;20367;-69
2023/11/22 12:22:01;;;;;;;29.47;15.17;;;;;;;;;;5003727;28;20084;-70
2023/11/22 12:24:27;;;;;;;32.20;13.07;;;;;;;;;;5014125;28;20042;-70
2023/11/22 12:26:55;;;;;;;34.83;13.63;;;;;;;;;;5005712;28;20060;-72
2023/11/22 12:29:20;;;;;;;33.50;14.23;;;;;;;;;;4997614;28;20089;-70
2023/11/22 12:31:50;;;;;;;31.77;14.77;;;;;;;;;;4997652;28;20045;-71
2023/11/22 12:34:17;;;;;;;33.93;14.63;;;;;;;;;;5001592;28;20048;-71
2023/11/22 12:36:50;;;;;;;29.80;14.27;;;;;;;;;;5005719;28;20038;-70
2023/11/22 12:39:20;;;;;;;30.37;14.63;;;;;;;;;;4992927;28;20482;-70
2023/11/22 12:41:48;;;;;;;32.53;13.30;;;;;;;;;;4999755;28;20033;-70
2023/11/22 12:44:13;;;;;;;30.40;14.33;;;;;;;;;;5004022;28;20490;-70
2023/11/22 12:46:50;;;;;;;29.50;13.80;;;;;;;;;;5002837;28;20030;-70
2023/11/22 12:49:18;;;;;;;31.20;12.93;;;;;;;;;;4995094;28;20033;-67
2023/11/22 12:51:55;;;;;;;31.50;13.87;;;;;;;;;;5010196;28;20037;-71
2023/11/22 12:54:23;;;;;;;28.43;12.70;;;;;;;;;;5005081;28;20041;-71
2023/11/22 12:56:59;;;;;;;31.50;12.87;;;;;;;;;;5025760;28;20050;-71
2023/11/22 12:59:33;;;;;;;26.98;13.27;;;;;;;;;;5000565;28;20042;-71
2023/11/22 13:02:11;;;;;;;24.93;12.33;;;;;;;;;;5008663;28;20033;-71
2023/11/22 13:04:37;;;;;;;32.17;13.83;;;;;;;;;;5017120;28;20104;-71
2023/11/22 13:07:04;;;;;;;30.50;14.63;;;;;;;;;;5001549;28;20049;-71
2023/11/22 13:09:35;;;;;;;27.10;12.63;;;;;;;;;;5009545;28;20128;-72
2023/11/22 13:12:01;;;;;;;30.07;14.50;;;;;;;;;;5007631;28;20061;-74
2023/11/22 13:14:37;;;;;;;25.40;12.33;;;;;;;;;;5009197;28;20037;-70
2023/11/22 13:17:04;;;;;;;27.13;12.50;;;;;;;;;;5001402;28;20139;-74
2023/11/22 13:19:40;;;;;;;25.50;12.17;;;;;;;;;;5001810;28;20034;-72
2023/11/22 13:22:08;;;;;;;30.50;13.77;;;;;;;;;;5003072;28;20038;-74
2023/11/22 13:24:37;;;;;;;28.33;13.93;;;;;;;;;;5021900;28;20084;-72
2023/11/22 13:27:03;;;;;;;27.07;12.43;;;;;;;;;;5005650;28;20022;-70
2023/11/22 13:29:29;;;;;;;22.03;12.60;;;;;;;;;;5002316;28;20037;-70
2023/11/22 13:31:54;;;;;;;25.83;11.73;;;;;;;;;;5003290;28;20037;-70
2023/11/22 13:34:20;;;;;;;28.37;12.43;;;;;;;;;;5013898;28;20038;-71
2023/11/22 13:36:48;;;;;;;25.60;12.80;;;;;;;;;;5017287;28;20117;-71
2023/11/22 13:39:14;;;;;;;20.23;11.00;;;;;;;;;;5005968;28;20896;-71
2023/11/22 13:41:41;;;;;;;25.07;12.53;;;;;;;;;;5010966;28;20055;-71
2023/11/22 13:44:07;;;;;;;28.30;12.87;;;;;;;;;;5006187;28;20460;-70
2023/11/22 13:46:33;;;;;;;26.70;12.33;;;;;;;;;;5019056;28;20083;-70
2023/11/22 13:49:02;;;;;;;28.20;12.37;;;;;;;;;;5017233;28;20057;-73
2023/11/22 13:51:35;;;;;;;26.80;13.17;;;;;;;;;;4995865;28;20088;-70
2023/11/22 13:54:03;;;;;;;29.17;13.97;;;;;;;;;;4998595;28;20045;-69
2023/11/22 13:56:29;;;;;;;30.70;12.93;;;;;;;;;;5003808;28;20034;-72
2023/11/22 13:58:55;;;;;;;29.97;13.43;;;;;;;;;;4999657;28;20437;-68
2023/11/22 14:01:21;;;;;;;28.00;12.43;;;;;;;;;;4997689;28;20030;-71
2023/11/22 14:03:48;;;;;;;31.03;12.40;;;;;;;;;;5001629;28;20040;-69
2023/11/22 14:06:16;;;;;;;23.93;13.80;;;;;;;;;;5002198;28;20120;-71
2023/11/22 14:08:42;;;;;;;23.40;13.00;;;;;;;;;;4998854;28;20181;-72
2023/11/22 14:11:08;;;;;;;26.33;12.23;;;;;;;;;;4997231;28;21582;-72
2023/11/22 14:13:35;;;;;;;30.57;12.53;;;;;;;;;;5008604;28;20061;-70
2023/11/22 14:16:03;;;;;;;30.37;13.10;;;;;;;;;;4998449;28;20105;-69
2023/11/22 14:18:29;;;;;;;27.83;13.00;;;;;;;;;;4997576;28;20047;-71
2023/11/22 14:20:56;;;;;;;31.67;13.07;;;;;;;;;;4997457;28;20029;-70
2023/11/22 14:23:23;;;;;;;27.43;12.90;;;;;;;;;;4998535;28;20033;-73
2023/11/22 14:25:49;;;;;;;32.40;13.23;;;;;;;;;;5008477;28;20501;-70
2023/11/22 14:28:15;;;;;;;30.67;13.97;;;;;;;;;;4999438;28;20017;-72